sensor_id;sensor_type;location;lat;lon;timestamp;P1;durP1;ratioP1;P2;durP2;ratioP2
15655;SDS011;7928;43.614;1.456;2023-05-29T00:00:02;8.67;;;4.43;;
15655;SDS011;7928;43.614;1.456;2023-05-29T00:02:31;8.00;;;3.70;;
15655;SDS011;7928;43.614;1.456;2023-05-29T00:04:59;9.47;;;3.83;;
15655;SDS011;7928;43.614;1.456;2023-05-29T00:07:29;7.73;;;3.90;;
15655;SDS011;7928;43.614;1.456;2023-05-29T00:09:57;9.30;;;4.07;;
15655;SDS011;7928;43.614;1.456;2023-05-29T00:12:24;10.27;;;4.30;;
15655;SDS011;7928;43.614;1.456;2023-05-29T00:14:51;11.63;;;4.10;;
15655;SDS011;7928;43.614;1.456;2023-05-29T00:17:18;8.47;;;4.30;;
15655;SDS011;7928;43.614;1.456;2023-05-29T00:19:45;7.13;;;3.50;;
15655;SDS011;7928;43.614;1.456;2023-05-29T00:22:12;7.37;;;3.87;;
15655;SDS011;7928;43.614;1.456;2023-05-29T00:24:41;8.30;;;3.90;;
15655;SDS011;7928;43.614;1.456;2023-05-29T00:27:08;8.00;;;3.63;;
15655;SDS011;7928;43.614;1.456;2023-05-29T00:29:36;6.37;;;3.83;;
15655;SDS011;7928;43.614;1.456;2023-05-29T00:32:04;6.83;;;3.63;;
15655;SDS011;7928;43.614;1.456;2023-05-29T00:34:31;7.70;;;3.40;;
15655;SDS011;7928;43.614;1.456;2023-05-29T00:36:58;7.17;;;3.50;;
15655;SDS011;7928;43.614;1.456;2023-05-29T00:39:26;10.37;;;3.40;;
15655;SDS011;7928;43.614;1.456;2023-05-29T00:41:55;7.00;;;3.60;;
15655;SDS011;7928;43.614;1.456;2023-05-29T00:44:22;6.27;;;3.33;;
15655;SDS011;7928;43.614;1.456;2023-05-29T00:46:51;7.73;;;3.40;;
15655;SDS011;7928;43.614;1.456;2023-05-29T00:49:19;7.73;;;3.47;;
15655;SDS011;7928;43.614;1.456;2023-05-29T00:51:48;8.57;;;3.73;;
15655;SDS011;7928;43.614;1.456;2023-05-29T00:54:20;8.93;;;4.10;;
15655;SDS011;7928;43.614;1.456;2023-05-29T00:56:49;6.70;;;3.93;;
15655;SDS011;7928;43.614;1.456;2023-05-29T00:59:18;7.47;;;3.40;;
15655;SDS011;7928;43.614;1.456;2023-05-29T01:01:46;12.03;;;3.97;;
15655;SDS011;7928;43.614;1.456;2023-05-29T01:04:14;8.40;;;3.67;;
15655;SDS011;7928;43.614;1.456;2023-05-29T01:06:43;7.63;;;4.03;;
15655;SDS011;7928;43.614;1.456;2023-05-29T01:09:10;7.23;;;3.57;;
15655;SDS011;7928;43.614;1.456;2023-05-29T01:11:41;10.90;;;4.33;;
15655;SDS011;7928;43.614;1.456;2023-05-29T01:14:19;5.47;;;3.73;;
15655;SDS011;7928;43.614;1.456;2023-05-29T01:16:54;7.67;;;3.93;;
15655;SDS011;7928;43.614;1.456;2023-05-29T01:19:32;8.10;;;3.50;;
15655;SDS011;7928;43.614;1.456;2023-05-29T01:22:22;9.00;;;4.17;;
15655;SDS011;7928;43.614;1.456;2023-05-29T01:25:02;6.90;;;3.30;;
15655;SDS011;7928;43.614;1.456;2023-05-29T01:27:40;8.10;;;4.17;;
15655;SDS011;7928;43.614;1.456;2023-05-29T01:30:10;8.53;;;3.87;;
15655;SDS011;7928;43.614;1.456;2023-05-29T01:32:38;5.23;;;3.53;;
15655;SDS011;7928;43.614;1.456;2023-05-29T01:35:07;10.00;;;4.00;;
15655;SDS011;7928;43.614;1.456;2023-05-29T01:37:35;6.77;;;4.00;;
15655;SDS011;7928;43.614;1.456;2023-05-29T01:40:02;8.43;;;4.00;;
15655;SDS011;7928;43.614;1.456;2023-05-29T01:42:30;9.20;;;3.90;;
15655;SDS011;7928;43.614;1.456;2023-05-29T01:44:59;8.93;;;3.60;;
15655;SDS011;7928;43.614;1.456;2023-05-29T01:47:28;7.03;;;3.80;;
15655;SDS011;7928;43.614;1.456;2023-05-29T01:49:56;8.33;;;3.77;;
15655;SDS011;7928;43.614;1.456;2023-05-29T01:52:24;8.33;;;4.20;;
15655;SDS011;7928;43.614;1.456;2023-05-29T01:54:51;7.50;;;4.00;;
15655;SDS011;7928;43.614;1.456;2023-05-29T01:57:18;7.00;;;3.87;;
15655;SDS011;7928;43.614;1.456;2023-05-29T01:59:45;7.17;;;4.00;;
15655;SDS011;7928;43.614;1.456;2023-05-29T02:02:15;10.57;;;4.40;;
15655;SDS011;7928;43.614;1.456;2023-05-29T02:04:42;7.03;;;3.70;;
15655;SDS011;7928;43.614;1.456;2023-05-29T02:07:09;11.40;;;4.20;;
15655;SDS011;7928;43.614;1.456;2023-05-29T02:09:37;8.23;;;3.40;;
15655;SDS011;7928;43.614;1.456;2023-05-29T02:12:04;8.97;;;3.77;;
15655;SDS011;7928;43.614;1.456;2023-05-29T02:14:32;10.33;;;4.47;;
15655;SDS011;7928;43.614;1.456;2023-05-29T02:16:59;9.00;;;3.87;;
15655;SDS011;7928;43.614;1.456;2023-05-29T02:19:29;8.30;;;3.77;;
15655;SDS011;7928;43.614;1.456;2023-05-29T02:21:56;7.47;;;4.40;;
15655;SDS011;7928;43.614;1.456;2023-05-29T02:24:23;9.40;;;4.30;;
15655;SDS011;7928;43.614;1.456;2023-05-29T02:26:50;9.40;;;4.10;;
15655;SDS011;7928;43.614;1.456;2023-05-29T02:29:17;8.20;;;4.10;;
15655;SDS011;7928;43.614;1.456;2023-05-29T02:31:44;10.53;;;5.10;;
15655;SDS011;7928;43.614;1.456;2023-05-29T02:34:11;10.47;;;4.33;;
15655;SDS011;7928;43.614;1.456;2023-05-29T02:36:39;9.60;;;5.20;;
15655;SDS011;7928;43.614;1.456;2023-05-29T02:39:07;10.17;;;5.00;;
15655;SDS011;7928;43.614;1.456;2023-05-29T02:41:34;8.17;;;4.43;;
15655;SDS011;7928;43.614;1.456;2023-05-29T02:44:01;10.63;;;4.40;;
15655;SDS011;7928;43.614;1.456;2023-05-29T02:46:28;9.10;;;5.47;;
15655;SDS011;7928;43.614;1.456;2023-05-29T02:48:56;11.57;;;4.63;;
15655;SDS011;7928;43.614;1.456;2023-05-29T02:51:23;9.13;;;4.60;;
15655;SDS011;7928;43.614;1.456;2023-05-29T02:53:51;8.67;;;4.47;;
15655;SDS011;7928;43.614;1.456;2023-05-29T02:56:18;9.23;;;4.80;;
15655;SDS011;7928;43.614;1.456;2023-05-29T02:58:48;9.57;;;4.90;;
15655;SDS011;7928;43.614;1.456;2023-05-29T03:01:15;11.17;;;4.97;;
15655;SDS011;7928;43.614;1.456;2023-05-29T03:03:42;10.07;;;4.70;;
15655;SDS011;7928;43.614;1.456;2023-05-29T03:06:10;10.67;;;4.77;;
15655;SDS011;7928;43.614;1.456;2023-05-29T03:08:37;13.03;;;4.90;;
15655;SDS011;7928;43.614;1.456;2023-05-29T03:11:06;10.67;;;5.53;;
15655;SDS011;7928;43.614;1.456;2023-05-29T03:13:34;8.67;;;4.50;;
15655;SDS011;7928;43.614;1.456;2023-05-29T03:16:01;9.30;;;5.53;;
15655;SDS011;7928;43.614;1.456;2023-05-29T03:18:28;11.27;;;6.03;;
15655;SDS011;7928;43.614;1.456;2023-05-29T03:20:55;10.43;;;5.67;;
15655;SDS011;7928;43.614;1.456;2023-05-29T03:23:22;10.27;;;6.13;;
15655;SDS011;7928;43.614;1.456;2023-05-29T03:25:49;15.80;;;6.17;;
15655;SDS011;7928;43.614;1.456;2023-05-29T03:28:18;9.27;;;5.03;;
15655;SDS011;7928;43.614;1.456;2023-05-29T03:30:45;9.30;;;5.67;;
15655;SDS011;7928;43.614;1.456;2023-05-29T03:33:11;7.57;;;4.63;;
15655;SDS011;7928;43.614;1.456;2023-05-29T03:35:38;9.40;;;4.87;;
15655;SDS011;7928;43.614;1.456;2023-05-29T03:38:05;9.80;;;5.03;;
15655;SDS011;7928;43.614;1.456;2023-05-29T03:40:33;9.83;;;5.07;;
15655;SDS011;7928;43.614;1.456;2023-05-29T03:43:00;13.40;;;6.13;;
15655;SDS011;7928;43.614;1.456;2023-05-29T03:45:28;11.53;;;5.60;;
15655;SDS011;7928;43.614;1.456;2023-05-29T03:47:55;13.13;;;4.90;;
15655;SDS011;7928;43.614;1.456;2023-05-29T03:50:22;13.87;;;5.73;;
15655;SDS011;7928;43.614;1.456;2023-05-29T03:52:49;14.73;;;5.97;;
15655;SDS011;7928;43.614;1.456;2023-05-29T03:55:16;9.80;;;5.10;;
15655;SDS011;7928;43.614;1.456;2023-05-29T03:57:43;9.63;;;5.80;;
15655;SDS011;7928;43.614;1.456;2023-05-29T04:00:11;13.50;;;5.30;;
15655;SDS011;7928;43.614;1.456;2023-05-29T04:02:40;9.57;;;5.13;;
15655;SDS011;7928;43.614;1.456;2023-05-29T04:05:07;12.47;;;5.30;;
15655;SDS011;7928;43.614;1.456;2023-05-29T04:07:35;11.83;;;5.27;;
15655;SDS011;7928;43.614;1.456;2023-05-29T04:10:03;13.10;;;5.77;;
15655;SDS011;7928;43.614;1.456;2023-05-29T04:12:31;9.50;;;6.00;;
15655;SDS011;7928;43.614;1.456;2023-05-29T04:14:58;9.70;;;5.33;;
15655;SDS011;7928;43.614;1.456;2023-05-29T04:17:25;7.33;;;5.20;;
15655;SDS011;7928;43.614;1.456;2023-05-29T04:19:54;9.53;;;4.97;;
15655;SDS011;7928;43.614;1.456;2023-05-29T04:22:21;13.17;;;5.30;;
15655;SDS011;7928;43.614;1.456;2023-05-29T04:24:48;8.93;;;5.40;;
15655;SDS011;7928;43.614;1.456;2023-05-29T04:27:15;10.27;;;5.30;;
15655;SDS011;7928;43.614;1.456;2023-05-29T04:29:43;11.30;;;5.23;;
15655;SDS011;7928;43.614;1.456;2023-05-29T04:32:10;9.37;;;5.23;;
15655;SDS011;7928;43.614;1.456;2023-05-29T04:34:37;9.53;;;5.63;;
15655;SDS011;7928;43.614;1.456;2023-05-29T04:37:06;9.17;;;5.53;;
15655;SDS011;7928;43.614;1.456;2023-05-29T04:39:33;9.67;;;5.37;;
15655;SDS011;7928;43.614;1.456;2023-05-29T04:42:00;6.07;;;5.00;;
15655;SDS011;7928;43.614;1.456;2023-05-29T04:44:27;9.57;;;5.53;;
15655;SDS011;7928;43.614;1.456;2023-05-29T04:46:54;9.87;;;5.40;;
15655;SDS011;7928;43.614;1.456;2023-05-29T04:49:22;11.57;;;5.77;;
15655;SDS011;7928;43.614;1.456;2023-05-29T04:51:50;11.43;;;5.60;;
15655;SDS011;7928;43.614;1.456;2023-05-29T04:54:21;10.00;;;5.60;;
15655;SDS011;7928;43.614;1.456;2023-05-29T04:56:49;13.20;;;5.93;;
15655;SDS011;7928;43.614;1.456;2023-05-29T04:59:16;9.17;;;5.33;;
15655;SDS011;7928;43.614;1.456;2023-05-29T05:01:42;11.43;;;6.20;;
15655;SDS011;7928;43.614;1.456;2023-05-29T05:04:10;12.10;;;5.90;;
15655;SDS011;7928;43.614;1.456;2023-05-29T05:06:37;9.73;;;5.43;;
15655;SDS011;7928;43.614;1.456;2023-05-29T05:09:04;8.90;;;5.50;;
15655;SDS011;7928;43.614;1.456;2023-05-29T05:11:32;9.17;;;5.73;;
15655;SDS011;7928;43.614;1.456;2023-05-29T05:13:59;11.77;;;5.47;;
15655;SDS011;7928;43.614;1.456;2023-05-29T05:16:26;10.50;;;4.87;;
15655;SDS011;7928;43.614;1.456;2023-05-29T05:18:53;9.73;;;5.13;;
15655;SDS011;7928;43.614;1.456;2023-05-29T05:21:20;13.80;;;5.33;;
15655;SDS011;7928;43.614;1.456;2023-05-29T05:23:47;8.77;;;5.00;;
15655;SDS011;7928;43.614;1.456;2023-05-29T05:26:14;11.03;;;5.77;;
15655;SDS011;7928;43.614;1.456;2023-05-29T05:28:42;14.27;;;6.07;;
15655;SDS011;7928;43.614;1.456;2023-05-29T05:31:09;10.23;;;5.60;;
15655;SDS011;7928;43.614;1.456;2023-05-29T05:33:36;8.50;;;5.17;;
15655;SDS011;7928;43.614;1.456;2023-05-29T05:36:03;11.00;;;5.30;;
15655;SDS011;7928;43.614;1.456;2023-05-29T05:38:31;12.13;;;5.30;;
15655;SDS011;7928;43.614;1.456;2023-05-29T05:40:58;9.90;;;4.97;;
15655;SDS011;7928;43.614;1.456;2023-05-29T05:43:25;9.90;;;6.03;;
15655;SDS011;7928;43.614;1.456;2023-05-29T05:45:55;8.00;;;5.60;;
15655;SDS011;7928;43.614;1.456;2023-05-29T05:48:22;12.50;;;6.03;;
15655;SDS011;7928;43.614;1.456;2023-05-29T05:50:49;15.27;;;5.57;;
15655;SDS011;7928;43.614;1.456;2023-05-29T05:53:16;9.80;;;4.80;;
15655;SDS011;7928;43.614;1.456;2023-05-29T05:55:43;10.07;;;5.07;;
15655;SDS011;7928;43.614;1.456;2023-05-29T05:58:11;10.63;;;5.17;;
15655;SDS011;7928;43.614;1.456;2023-05-29T06:00:39;10.63;;;4.83;;
15655;SDS011;7928;43.614;1.456;2023-05-29T06:03:08;12.10;;;5.27;;
15655;SDS011;7928;43.614;1.456;2023-05-29T06:05:35;14.70;;;6.03;;
15655;SDS011;7928;43.614;1.456;2023-05-29T06:08:06;9.67;;;5.20;;
15655;SDS011;7928;43.614;1.456;2023-05-29T06:10:33;11.23;;;5.43;;
15655;SDS011;7928;43.614;1.456;2023-05-29T06:13:01;10.63;;;5.60;;
15655;SDS011;7928;43.614;1.456;2023-05-29T06:15:28;10.93;;;6.17;;
15655;SDS011;7928;43.614;1.456;2023-05-29T06:17:55;12.07;;;5.90;;
15655;SDS011;7928;43.614;1.456;2023-05-29T06:20:23;8.03;;;5.50;;
15655;SDS011;7928;43.614;1.456;2023-05-29T06:22:50;11.53;;;6.37;;
15655;SDS011;7928;43.614;1.456;2023-05-29T06:25:18;16.80;;;5.20;;
15655;SDS011;7928;43.614;1.456;2023-05-29T06:27:46;8.43;;;5.60;;
15655;SDS011;7928;43.614;1.456;2023-05-29T06:30:13;10.47;;;5.50;;
15655;SDS011;7928;43.614;1.456;2023-05-29T06:32:42;9.73;;;6.27;;
15655;SDS011;7928;43.614;1.456;2023-05-29T06:35:09;12.63;;;5.77;;
15655;SDS011;7928;43.614;1.456;2023-05-29T06:37:37;13.97;;;5.57;;
15655;SDS011;7928;43.614;1.456;2023-05-29T06:40:04;9.13;;;5.53;;
15655;SDS011;7928;43.614;1.456;2023-05-29T06:42:32;10.77;;;5.43;;
15655;SDS011;7928;43.614;1.456;2023-05-29T06:44:59;11.90;;;5.60;;
15655;SDS011;7928;43.614;1.456;2023-05-29T06:47:26;7.43;;;5.37;;
15655;SDS011;7928;43.614;1.456;2023-05-29T06:49:53;12.33;;;5.90;;
15655;SDS011;7928;43.614;1.456;2023-05-29T06:52:20;7.40;;;5.33;;
15655;SDS011;7928;43.614;1.456;2023-05-29T06:54:48;9.00;;;5.47;;
15655;SDS011;7928;43.614;1.456;2023-05-29T06:57:15;12.33;;;5.33;;
15655;SDS011;7928;43.614;1.456;2023-05-29T06:59:42;11.83;;;5.37;;
15655;SDS011;7928;43.614;1.456;2023-05-29T07:02:09;11.63;;;5.00;;
15655;SDS011;7928;43.614;1.456;2023-05-29T07:04:37;9.00;;;4.30;;
15655;SDS011;7928;43.614;1.456;2023-05-29T07:07:04;10.90;;;5.53;;
15655;SDS011;7928;43.614;1.456;2023-05-29T07:09:31;7.70;;;4.97;;
15655;SDS011;7928;43.614;1.456;2023-05-29T07:11:59;9.50;;;5.00;;
15655;SDS011;7928;43.614;1.456;2023-05-29T07:14:26;10.40;;;5.13;;
15655;SDS011;7928;43.614;1.456;2023-05-29T07:16:53;10.53;;;5.87;;
15655;SDS011;7928;43.614;1.456;2023-05-29T07:19:20;13.50;;;4.80;;
15655;SDS011;7928;43.614;1.456;2023-05-29T07:21:47;8.13;;;4.70;;
15655;SDS011;7928;43.614;1.456;2023-05-29T07:24:14;9.73;;;5.10;;
15655;SDS011;7928;43.614;1.456;2023-05-29T07:26:41;7.63;;;4.80;;
15655;SDS011;7928;43.614;1.456;2023-05-29T07:29:10;7.53;;;4.40;;
15655;SDS011;7928;43.614;1.456;2023-05-29T07:31:38;11.90;;;4.80;;
15655;SDS011;7928;43.614;1.456;2023-05-29T07:34:05;10.77;;;5.57;;
15655;SDS011;7928;43.614;1.456;2023-05-29T07:36:32;8.67;;;4.97;;
15655;SDS011;7928;43.614;1.456;2023-05-29T07:39:01;9.10;;;4.60;;
15655;SDS011;7928;43.614;1.456;2023-05-29T07:41:30;9.00;;;4.57;;
15655;SDS011;7928;43.614;1.456;2023-05-29T07:43:57;8.63;;;5.00;;
15655;SDS011;7928;43.614;1.456;2023-05-29T07:46:25;8.63;;;5.07;;
15655;SDS011;7928;43.614;1.456;2023-05-29T07:48:52;10.03;;;5.67;;
15655;SDS011;7928;43.614;1.456;2023-05-29T07:51:19;7.73;;;4.60;;
15655;SDS011;7928;43.614;1.456;2023-05-29T07:53:46;8.27;;;5.03;;
15655;SDS011;7928;43.614;1.456;2023-05-29T07:56:13;9.93;;;4.80;;
15655;SDS011;7928;43.614;1.456;2023-05-29T07:58:41;9.43;;;5.10;;
15655;SDS011;7928;43.614;1.456;2023-05-29T08:01:08;12.10;;;5.53;;
15655;SDS011;7928;43.614;1.456;2023-05-29T08:03:37;8.17;;;4.73;;
15655;SDS011;7928;43.614;1.456;2023-05-29T08:06:04;9.67;;;4.53;;
15655;SDS011;7928;43.614;1.456;2023-05-29T08:08:31;8.17;;;4.50;;
15655;SDS011;7928;43.614;1.456;2023-05-29T08:10:58;9.03;;;4.57;;
15655;SDS011;7928;43.614;1.456;2023-05-29T08:13:25;10.60;;;4.90;;
15655;SDS011;7928;43.614;1.456;2023-05-29T08:15:52;6.57;;;3.97;;
15655;SDS011;7928;43.614;1.456;2023-05-29T08:18:19;7.00;;;4.27;;
15655;SDS011;7928;43.614;1.456;2023-05-29T08:20:47;8.97;;;3.90;;
15655;SDS011;7928;43.614;1.456;2023-05-29T08:23:15;7.73;;;4.77;;
15655;SDS011;7928;43.614;1.456;2023-05-29T08:25:42;7.03;;;4.33;;
15655;SDS011;7928;43.614;1.456;2023-05-29T08:28:09;6.00;;;4.17;;
15655;SDS011;7928;43.614;1.456;2023-05-29T08:30:37;8.17;;;3.90;;
15655;SDS011;7928;43.614;1.456;2023-05-29T08:33:04;9.77;;;4.40;;
15655;SDS011;7928;43.614;1.456;2023-05-29T08:35:31;7.17;;;4.00;;
15655;SDS011;7928;43.614;1.456;2023-05-29T08:37:59;8.10;;;4.40;;
15655;SDS011;7928;43.614;1.456;2023-05-29T08:40:26;8.80;;;4.53;;
15655;SDS011;7928;43.614;1.456;2023-05-29T08:42:55;7.23;;;4.50;;
15655;SDS011;7928;43.614;1.456;2023-05-29T08:45:25;7.83;;;3.93;;
15655;SDS011;7928;43.614;1.456;2023-05-29T08:47:54;7.97;;;3.93;;
15655;SDS011;7928;43.614;1.456;2023-05-29T08:50:24;8.20;;;3.53;;
15655;SDS011;7928;43.614;1.456;2023-05-29T08:52:51;7.03;;;4.07;;
15655;SDS011;7928;43.614;1.456;2023-05-29T08:55:19;5.83;;;3.93;;
15655;SDS011;7928;43.614;1.456;2023-05-29T08:57:47;10.63;;;4.27;;
15655;SDS011;7928;43.614;1.456;2023-05-29T09:00:14;10.97;;;5.03;;
15655;SDS011;7928;43.614;1.456;2023-05-29T09:02:43;6.50;;;4.00;;
15655;SDS011;7928;43.614;1.456;2023-05-29T09:05:10;9.70;;;4.60;;
15655;SDS011;7928;43.614;1.456;2023-05-29T09:07:38;9.80;;;4.27;;
15655;SDS011;7928;43.614;1.456;2023-05-29T09:10:06;6.27;;;4.07;;
15655;SDS011;7928;43.614;1.456;2023-05-29T09:12:35;9.57;;;4.53;;
15655;SDS011;7928;43.614;1.456;2023-05-29T09:15:06;7.80;;;4.23;;
15655;SDS011;7928;43.614;1.456;2023-05-29T09:17:42;8.73;;;3.77;;
15655;SDS011;7928;43.614;1.456;2023-05-29T09:20:14;8.17;;;4.57;;
15655;SDS011;7928;43.614;1.456;2023-05-29T09:22:43;6.70;;;4.53;;
15655;SDS011;7928;43.614;1.456;2023-05-29T09:25:18;6.73;;;4.20;;
15655;SDS011;7928;43.614;1.456;2023-05-29T09:27:50;7.13;;;4.10;;
15655;SDS011;7928;43.614;1.456;2023-05-29T09:30:30;7.50;;;4.80;;
15655;SDS011;7928;43.614;1.456;2023-05-29T09:32:59;7.97;;;4.70;;
15655;SDS011;7928;43.614;1.456;2023-05-29T09:35:31;8.20;;;4.53;;
15655;SDS011;7928;43.614;1.456;2023-05-29T09:38:00;6.03;;;4.97;;
15655;SDS011;7928;43.614;1.456;2023-05-29T09:40:29;9.70;;;4.80;;
15655;SDS011;7928;43.614;1.456;2023-05-29T09:43:03;10.10;;;4.67;;
15655;SDS011;7928;43.614;1.456;2023-05-29T09:45:36;7.27;;;4.47;;
15655;SDS011;7928;43.614;1.456;2023-05-29T09:48:05;7.77;;;4.27;;
15655;SDS011;7928;43.614;1.456;2023-05-29T09:50:33;6.43;;;4.77;;
15655;SDS011;7928;43.614;1.456;2023-05-29T09:53:00;7.07;;;4.27;;
15655;SDS011;7928;43.614;1.456;2023-05-29T09:55:28;4.23;;;3.60;;
15655;SDS011;7928;43.614;1.456;2023-05-29T09:57:58;8.37;;;4.50;;
15655;SDS011;7928;43.614;1.456;2023-05-29T10:00:28;7.43;;;4.50;;
15655;SDS011;7928;43.614;1.456;2023-05-29T10:02:56;7.73;;;4.70;;
15655;SDS011;7928;43.614;1.456;2023-05-29T10:05:23;10.87;;;4.30;;
15655;SDS011;7928;43.614;1.456;2023-05-29T10:07:51;6.20;;;3.77;;
15655;SDS011;7928;43.614;1.456;2023-05-29T10:10:20;9.67;;;4.07;;
15655;SDS011;7928;43.614;1.456;2023-05-29T10:12:51;6.00;;;4.15;;
15655;SDS011;7928;43.614;1.456;2023-05-29T10:15:22;6.27;;;4.37;;
15655;SDS011;7928;43.614;1.456;2023-05-29T10:17:52;5.53;;;3.80;;
15655;SDS011;7928;43.614;1.456;2023-05-29T10:20:29;7.05;;;4.10;;
15655;SDS011;7928;43.614;1.456;2023-05-29T10:22:58;7.47;;;4.20;;
15655;SDS011;7928;43.614;1.456;2023-05-29T10:25:29;7.30;;;4.13;;
15655;SDS011;7928;43.614;1.456;2023-05-29T10:27:58;9.27;;;4.50;;
15655;SDS011;7928;43.614;1.456;2023-05-29T10:30:28;7.93;;;3.88;;
15655;SDS011;7928;43.614;1.456;2023-05-29T10:36:01;10.60;;;3.80;;
15655;SDS011;7928;43.614;1.456;2023-05-29T10:38:36;5.60;;;3.97;;
15655;SDS011;7928;43.614;1.456;2023-05-29T10:43:59;7.53;;;3.97;;
15655;SDS011;7928;43.614;1.456;2023-05-29T10:49:29;9.70;;;3.92;;
15655;SDS011;7928;43.614;1.456;2023-05-29T10:51:57;7.47;;;4.10;;
15655;SDS011;7928;43.614;1.456;2023-05-29T10:54:25;9.90;;;3.97;;
15655;SDS011;7928;43.614;1.456;2023-05-29T10:56:54;6.82;;;3.70;;
15655;SDS011;7928;43.614;1.456;2023-05-29T10:59:22;9.02;;;3.72;;
15655;SDS011;7928;43.614;1.456;2023-05-29T11:01:52;9.73;;;3.92;;
15655;SDS011;7928;43.614;1.456;2023-05-29T11:04:30;7.80;;;3.97;;
15655;SDS011;7928;43.614;1.456;2023-05-29T11:06:59;7.72;;;3.58;;
15655;SDS011;7928;43.614;1.456;2023-05-29T11:09:29;6.63;;;3.80;;
15655;SDS011;7928;43.614;1.456;2023-05-29T11:12:10;6.78;;;3.70;;
15655;SDS011;7928;43.614;1.456;2023-05-29T11:14:45;8.38;;;3.75;;
15655;SDS011;7928;43.614;1.456;2023-05-29T11:20:02;7.97;;;4.03;;
15655;SDS011;7928;43.614;1.456;2023-05-29T11:22:34;12.18;;;3.63;;
15655;SDS011;7928;43.614;1.456;2023-05-29T11:25:20;7.72;;;3.40;;
15655;SDS011;7928;43.614;1.456;2023-05-29T11:27:47;9.57;;;4.18;;
15655;SDS011;7928;43.614;1.456;2023-05-29T11:30:17;11.60;;;4.70;;
15655;SDS011;7928;43.614;1.456;2023-05-29T11:32:44;7.60;;;3.33;;
15655;SDS011;7928;43.614;1.456;2023-05-29T11:35:13;8.13;;;4.05;;
15655;SDS011;7928;43.614;1.456;2023-05-29T11:40:12;8.20;;;4.63;;
15655;SDS011;7928;43.614;1.456;2023-05-29T11:42:41;6.30;;;4.25;;
15655;SDS011;7928;43.614;1.456;2023-05-29T11:45:13;8.77;;;4.35;;
15655;SDS011;7928;43.614;1.456;2023-05-29T11:47:51;7.50;;;4.00;;
15655;SDS011;7928;43.614;1.456;2023-05-29T11:50:20;10.32;;;4.80;;
15655;SDS011;7928;43.614;1.456;2023-05-29T11:52:48;8.77;;;4.63;;
15655;SDS011;7928;43.614;1.456;2023-05-29T11:55:16;6.90;;;4.35;;
15655;SDS011;7928;43.614;1.456;2023-05-29T11:57:44;10.32;;;4.65;;
15655;SDS011;7928;43.614;1.456;2023-05-29T12:00:12;7.80;;;4.32;;
15655;SDS011;7928;43.614;1.456;2023-05-29T12:02:40;11.32;;;4.55;;
15655;SDS011;7928;43.614;1.456;2023-05-29T12:05:09;5.35;;;4.28;;
15655;SDS011;7928;43.614;1.456;2023-05-29T12:07:47;8.20;;;4.35;;
15655;SDS011;7928;43.614;1.456;2023-05-29T12:10:15;9.50;;;4.45;;
15655;SDS011;7928;43.614;1.456;2023-05-29T12:12:46;7.88;;;4.00;;
15655;SDS011;7928;43.614;1.456;2023-05-29T12:15:14;6.15;;;4.07;;
15655;SDS011;7928;43.614;1.456;2023-05-29T12:17:42;6.03;;;4.03;;
15655;SDS011;7928;43.614;1.456;2023-05-29T12:20:11;7.20;;;3.80;;
15655;SDS011;7928;43.614;1.456;2023-05-29T12:22:39;7.43;;;4.75;;
15655;SDS011;7928;43.614;1.456;2023-05-29T12:25:09;7.43;;;4.95;;
15655;SDS011;7928;43.614;1.456;2023-05-29T12:27:37;7.78;;;4.20;;
15655;SDS011;7928;43.614;1.456;2023-05-29T12:30:08;7.57;;;4.28;;
15655;SDS011;7928;43.614;1.456;2023-05-29T12:32:37;7.90;;;4.07;;
15655;SDS011;7928;43.614;1.456;2023-05-29T12:35:16;11.68;;;5.05;;
15655;SDS011;7928;43.614;1.456;2023-05-29T12:37:44;7.68;;;4.38;;
15655;SDS011;7928;43.614;1.456;2023-05-29T12:40:17;7.55;;;3.70;;
15655;SDS011;7928;43.614;1.456;2023-05-29T12:42:46;8.63;;;4.32;;
15655;SDS011;7928;43.614;1.456;2023-05-29T12:45:13;10.45;;;3.90;;
15655;SDS011;7928;43.614;1.456;2023-05-29T12:47:44;10.35;;;4.32;;
15655;SDS011;7928;43.614;1.456;2023-05-29T12:50:22;9.57;;;4.07;;
15655;SDS011;7928;43.614;1.456;2023-05-29T12:52:54;8.75;;;3.90;;
15655;SDS011;7928;43.614;1.456;2023-05-29T12:55:23;8.57;;;3.97;;
15655;SDS011;7928;43.614;1.456;2023-05-29T12:57:50;10.63;;;4.18;;
15655;SDS011;7928;43.614;1.456;2023-05-29T13:00:18;7.78;;;4.07;;
15655;SDS011;7928;43.614;1.456;2023-05-29T13:02:46;7.93;;;4.07;;
15655;SDS011;7928;43.614;1.456;2023-05-29T13:05:14;7.90;;;3.83;;
15655;SDS011;7928;43.614;1.456;2023-05-29T13:07:43;11.73;;;4.20;;
15655;SDS011;7928;43.614;1.456;2023-05-29T13:10:12;7.40;;;3.90;;
15655;SDS011;7928;43.614;1.456;2023-05-29T13:12:40;8.75;;;4.00;;
15655;SDS011;7928;43.614;1.456;2023-05-29T13:15:08;10.05;;;3.45;;
15655;SDS011;7928;43.614;1.456;2023-05-29T13:17:36;9.57;;;4.30;;
15655;SDS011;7928;43.614;1.456;2023-05-29T13:20:06;7.55;;;3.88;;
15655;SDS011;7928;43.614;1.456;2023-05-29T13:22:35;8.35;;;4.07;;
15655;SDS011;7928;43.614;1.456;2023-05-29T13:25:02;6.72;;;3.55;;
15655;SDS011;7928;43.614;1.456;2023-05-29T13:27:31;6.50;;;3.85;;
15655;SDS011;7928;43.614;1.456;2023-05-29T13:30:01;6.15;;;3.92;;
15655;SDS011;7928;43.614;1.456;2023-05-29T13:32:29;8.27;;;3.88;;
15655;SDS011;7928;43.614;1.456;2023-05-29T13:34:56;6.68;;;4.35;;
15655;SDS011;7928;43.614;1.456;2023-05-29T13:37:23;11.43;;;4.30;;
15655;SDS011;7928;43.614;1.456;2023-05-29T13:39:52;5.47;;;3.90;;
15655;SDS011;7928;43.614;1.456;2023-05-29T13:42:19;7.05;;;3.35;;
15655;SDS011;7928;43.614;1.456;2023-05-29T13:44:47;6.93;;;3.83;;
15655;SDS011;7928;43.614;1.456;2023-05-29T13:47:16;6.80;;;3.75;;
15655;SDS011;7928;43.614;1.456;2023-05-29T13:49:43;11.00;;;4.50;;
15655;SDS011;7928;43.614;1.456;2023-05-29T13:52:10;8.13;;;3.92;;
15655;SDS011;7928;43.614;1.456;2023-05-29T13:54:37;6.72;;;3.75;;
15655;SDS011;7928;43.614;1.456;2023-05-29T13:57:05;7.15;;;4.00;;
15655;SDS011;7928;43.614;1.456;2023-05-29T13:59:33;9.30;;;3.75;;
15655;SDS011;7928;43.614;1.456;2023-05-29T14:02:01;6.88;;;3.88;;
15655;SDS011;7928;43.614;1.456;2023-05-29T14:04:30;6.53;;;4.20;;
15655;SDS011;7928;43.614;1.456;2023-05-29T14:06:57;5.45;;;3.67;;
15655;SDS011;7928;43.614;1.456;2023-05-29T14:09:24;8.25;;;3.90;;
15655;SDS011;7928;43.614;1.456;2023-05-29T14:11:52;7.53;;;3.60;;
15655;SDS011;7928;43.614;1.456;2023-05-29T14:14:20;3.85;;;3.33;;
15655;SDS011;7928;43.614;1.456;2023-05-29T14:16:48;9.45;;;3.83;;
15655;SDS011;7928;43.614;1.456;2023-05-29T14:19:16;7.18;;;3.50;;
15655;SDS011;7928;43.614;1.456;2023-05-29T14:21:45;8.43;;;3.28;;
15655;SDS011;7928;43.614;1.456;2023-05-29T14:24:12;5.90;;;3.45;;
15655;SDS011;7928;43.614;1.456;2023-05-29T14:26:40;7.78;;;3.80;;
15655;SDS011;7928;43.614;1.456;2023-05-29T14:29:10;7.32;;;3.35;;
15655;SDS011;7928;43.614;1.456;2023-05-29T14:31:38;7.07;;;3.80;;
15655;SDS011;7928;43.614;1.456;2023-05-29T14:34:05;6.30;;;3.70;;
15655;SDS011;7928;43.614;1.456;2023-05-29T14:36:32;5.82;;;3.47;;
15655;SDS011;7928;43.614;1.456;2023-05-29T14:39:00;8.90;;;3.50;;
15655;SDS011;7928;43.614;1.456;2023-05-29T14:41:27;6.03;;;3.80;;
15655;SDS011;7928;43.614;1.456;2023-05-29T14:43:54;9.27;;;4.53;;
15655;SDS011;7928;43.614;1.456;2023-05-29T14:46:23;8.77;;;4.05;;
15655;SDS011;7928;43.614;1.456;2023-05-29T14:48:51;11.88;;;3.97;;
15655;SDS011;7928;43.614;1.456;2023-05-29T14:51:19;11.07;;;4.13;;
15655;SDS011;7928;43.614;1.456;2023-05-29T14:53:46;13.35;;;4.22;;
15655;SDS011;7928;43.614;1.456;2023-05-29T14:56:14;8.00;;;4.50;;
15655;SDS011;7928;43.614;1.456;2023-05-29T14:58:43;9.00;;;4.00;;
15655;SDS011;7928;43.614;1.456;2023-05-29T15:01:10;8.50;;;3.78;;
15655;SDS011;7928;43.614;1.456;2023-05-29T15:03:37;9.68;;;3.50;;
15655;SDS011;7928;43.614;1.456;2023-05-29T15:06:04;9.38;;;3.67;;
15655;SDS011;7928;43.614;1.456;2023-05-29T15:08:32;8.63;;;3.53;;
15655;SDS011;7928;43.614;1.456;2023-05-29T15:11:00;9.23;;;3.85;;
15655;SDS011;7928;43.614;1.456;2023-05-29T15:13:30;10.85;;;4.25;;
15655;SDS011;7928;43.614;1.456;2023-05-29T15:15:57;8.57;;;4.10;;
15655;SDS011;7928;43.614;1.456;2023-05-29T15:18:24;10.60;;;3.65;;